createdAt,value
2023-02-11T00:01:55.132Z,4.80
2023-02-11T00:05:03.807Z,4.75
2023-02-11T00:08:05.687Z,4.80
2023-02-11T00:11:07.794Z,4.79
2023-02-11T00:14:11.181Z,4.79
2023-02-11T00:17:12.949Z,4.76
2023-02-11T00:20:15.124Z,4.71
2023-02-11T00:23:16.677Z,4.70
2023-02-11T00:26:31.357Z,4.78
2023-02-11T00:29:33.067Z,4.80
2023-02-11T00:32:36.845Z,4.86
2023-02-11T00:35:40.329Z,4.82
2023-02-11T00:38:44.716Z,4.81
2023-02-11T00:41:46.379Z,4.80
2023-02-11T00:44:48.030Z,4.76
2023-02-11T00:47:51.808Z,4.80
2023-02-11T00:50:53.590Z,4.72
2023-02-11T00:53:55.591Z,4.73
2023-02-11T00:56:58.951Z,4.65
2023-02-11T01:00:00.736Z,4.67
2023-02-11T01:03:02.510Z,4.64
2023-02-11T01:06:05.544Z,4.71
2023-02-11T01:09:07.174Z,4.68
2023-02-11T01:12:10.204Z,4.69
2023-02-11T01:15:15.322Z,4.66
2023-02-11T01:18:18.705Z,4.66
2023-02-11T01:21:20.439Z,4.65
2023-02-11T01:24:22.185Z,4.64
2023-02-11T01:27:23.847Z,4.67
2023-02-11T01:30:25.666Z,4.74
2023-02-11T01:33:27.522Z,4.67
2023-02-11T01:36:29.188Z,4.63
2023-02-11T01:39:34.406Z,4.63
2023-02-11T01:42:36.265Z,4.65
2023-02-11T01:45:53.259Z,4.65
2023-02-11T01:48:59.738Z,4.62
2023-02-11T01:52:23.028Z,4.64
2023-02-11T01:55:43.618Z,4.61
2023-02-11T01:58:47.623Z,4.64
2023-02-11T02:01:56.754Z,4.59
2023-02-11T02:05:26.254Z,4.64
2023-02-11T02:08:52.604Z,4.68
2023-02-11T02:11:54.609Z,4.58
2023-02-11T02:15:19.983Z,4.65
2023-02-11T02:18:49.771Z,4.57
2023-02-11T02:22:14.332Z,4.57
2023-02-11T02:25:36.118Z,4.62
2023-02-11T02:29:15.599Z,4.67
2023-02-11T02:32:43.654Z,4.66
2023-02-11T02:36:05.631Z,4.69
2023-02-11T02:39:14.894Z,4.70
2023-02-11T02:42:18.317Z,4.75
2023-02-11T02:45:20.649Z,4.70
2023-02-11T02:48:27.089Z,4.72
2023-02-11T02:51:50.588Z,4.76
2023-02-11T02:55:12.459Z,4.74
2023-02-11T02:58:29.062Z,4.77
2023-02-11T03:02:08.618Z,4.83
2023-02-11T03:05:14.081Z,4.89
2023-02-11T03:08:34.691Z,4.85
2023-02-11T03:11:37.767Z,4.90
2023-02-11T03:14:41.137Z,4.92
2023-02-11T03:17:47.807Z,4.89
2023-02-11T03:20:53.318Z,4.94
2023-02-11T03:24:02.408Z,4.93
2023-02-11T03:27:21.663Z,4.92
2023-02-11T03:30:30.284Z,4.90
2023-02-11T03:33:49.628Z,4.96
2023-02-11T03:36:57.082Z,4.94
2023-02-11T03:40:06.724Z,4.88
2023-02-11T03:43:26.186Z,4.97
2023-02-11T03:46:33.181Z,4.97
2023-02-11T03:49:38.467Z,4.97
2023-02-11T03:52:41.931Z,4.99
2023-02-11T03:55:45.917Z,5.03
2023-02-11T03:58:49.129Z,4.99
2023-02-11T04:01:51.449Z,5.00
2023-02-11T04:04:53.586Z,5.02
2023-02-11T04:07:55.429Z,5.00
2023-02-11T04:10:57.647Z,4.95
2023-02-11T04:13:59.280Z,5.00
2023-02-11T04:17:01.830Z,4.94
2023-02-11T04:20:03.971Z,4.89
2023-02-11T04:23:05.537Z,4.98
2023-02-11T04:26:07.267Z,5.00
2023-02-11T04:29:09.056Z,4.97
2023-02-11T04:32:11.811Z,4.94
2023-02-11T04:35:13.697Z,5.01
2023-02-11T04:38:15.483Z,4.97
2023-02-11T04:41:17.337Z,5.02
2023-02-11T04:44:19.115Z,5.03
2023-02-11T04:47:20.953Z,5.02
2023-02-11T04:50:22.565Z,4.95
2023-02-11T04:53:24.280Z,4.92
2023-02-11T04:56:25.960Z,4.93
2023-02-11T04:59:27.983Z,5.01
2023-02-11T05:02:29.778Z,5.05
2023-02-11T05:05:31.414Z,5.05
2023-02-11T05:08:33.386Z,5.00
2023-02-11T05:11:36.628Z,5.07
2023-02-11T05:14:38.305Z,5.04
2023-02-11T05:17:39.976Z,5.12
2023-02-11T05:20:43.575Z,5.09
2023-02-11T05:23:45.744Z,5.13
2023-02-11T05:26:50.391Z,5.18
2023-02-11T05:29:52.074Z,5.21
2023-02-11T05:32:54.051Z,5.17
2023-02-11T05:36:05.458Z,5.18
2023-02-11T05:39:07.057Z,5.22
2023-02-11T05:42:08.915Z,5.16
2023-02-11T05:45:10.620Z,5.22
2023-02-11T05:48:12.209Z,5.16
2023-02-11T05:51:13.987Z,5.20
2023-02-11T05:54:15.998Z,5.21
2023-02-11T05:57:17.942Z,5.17
2023-02-11T06:00:19.909Z,5.21
2023-02-11T06:03:21.803Z,5.27
2023-02-11T06:06:23.520Z,5.28
2023-02-11T06:09:25.441Z,5.21
2023-02-11T06:12:27.248Z,5.21
2023-02-11T06:15:29.047Z,5.20
2023-02-11T06:18:31.014Z,5.25
2023-02-11T06:21:43.472Z,5.30
2023-02-11T06:25:00.388Z,5.33
2023-02-11T06:28:03.264Z,5.35
2023-02-11T06:31:06.968Z,5.34
2023-02-11T06:34:10.359Z,5.33
2023-02-11T06:37:12.101Z,5.29
2023-02-11T06:40:13.847Z,5.32
2023-02-11T06:43:15.576Z,5.31
2023-02-11T06:46:17.287Z,5.36
2023-02-11T06:49:18.934Z,5.39
2023-02-11T06:52:23.880Z,5.39
2023-02-11T06:55:25.663Z,5.35
2023-02-11T06:58:27.512Z,5.34
2023-02-11T07:01:29.271Z,5.42
2023-02-11T07:04:31.114Z,5.43
2023-02-11T07:07:34.239Z,5.41
2023-02-11T07:10:35.966Z,5.34
2023-02-11T07:13:37.670Z,5.45
2023-02-11T07:16:39.551Z,5.51
2023-02-11T07:19:41.443Z,5.48
2023-02-11T07:22:45.258Z,5.44
2023-02-11T07:25:50.302Z,5.53
2023-02-11T07:28:53.020Z,5.49
2023-02-11T07:31:54.990Z,5.49
2023-02-11T07:34:56.779Z,5.53
2023-02-11T07:37:58.557Z,5.59
2023-02-11T07:41:11.650Z,5.61
2023-02-11T07:44:13.364Z,5.56
2023-02-11T07:47:15.008Z,5.58
2023-02-11T07:50:17.792Z,5.65
2023-02-11T07:53:19.549Z,5.69
2023-02-11T07:56:22.220Z,5.71
2023-02-11T07:59:24.959Z,5.77
2023-02-11T08:02:26.921Z,5.77
2023-02-11T08:05:28.422Z,5.78
2023-02-11T08:08:30.214Z,5.79
2023-02-11T08:11:33.026Z,5.81
2023-02-11T08:14:34.984Z,5.82
2023-02-11T08:17:37.837Z,5.83
2023-02-11T08:20:39.536Z,5.85
2023-02-11T08:23:42.824Z,5.92
2023-02-11T08:26:45.756Z,5.90
2023-02-11T08:29:50.291Z,5.89
2023-02-11T08:32:52.240Z,5.87
2023-02-11T08:35:54.065Z,5.80
2023-02-11T08:39:12.187Z,5.82
2023-02-11T08:42:19.284Z,5.89
2023-02-11T08:45:20.879Z,5.93
2023-02-11T08:48:22.640Z,5.92
2023-02-11T08:51:36.155Z,5.97
2023-02-11T08:54:38.119Z,5.92
2023-02-11T08:57:39.745Z,5.98
2023-02-11T09:00:43.044Z,6.01
2023-02-11T09:03:44.752Z,6.01
2023-02-11T09:06:48.514Z,6.13
2023-02-11T09:09:50.290Z,6.19
2023-02-11T09:12:52.130Z,6.23
2023-02-11T09:15:53.839Z,6.28
2023-02-11T09:19:04.555Z,6.33
2023-02-11T09:22:06.361Z,6.31
2023-02-11T09:25:08.419Z,6.29
2023-02-11T09:28:10.430Z,6.36
2023-02-11T09:31:15.403Z,6.42
2023-02-11T09:34:17.355Z,6.49
2023-02-11T09:37:18.980Z,6.51
2023-02-11T09:40:21.483Z,6.58
2023-02-11T09:43:31.261Z,6.46
2023-02-11T09:46:37.772Z,6.34
2023-02-11T09:49:45.696Z,6.34
2023-02-11T09:52:56.801Z,6.32
2023-02-11T09:56:01.360Z,6.32
2023-02-11T09:59:04.718Z,6.39
2023-02-11T10:02:43.280Z,6.41
2023-02-11T10:06:26.306Z,6.47
2023-02-11T10:10:13.196Z,6.59
2023-02-11T10:13:14.874Z,6.77
2023-02-11T10:17:00.278Z,6.80
2023-02-11T10:20:44.423Z,6.86
2023-02-11T10:23:54.677Z,6.90
2023-02-11T10:26:56.554Z,6.99
2023-02-11T10:30:20.738Z,6.94
2023-02-11T10:33:41.117Z,6.93
2023-02-11T10:36:45.005Z,6.98
2023-02-11T10:39:46.932Z,6.94
2023-02-11T10:42:53.689Z,6.94
2023-02-11T10:45:57.885Z,7.05
2023-02-11T10:48:59.877Z,7.10
2023-02-11T10:52:33.574Z,7.18
2023-02-11T10:55:36.318Z,7.16
2023-02-11T10:58:45.642Z,7.14
2023-02-11T11:01:51.296Z,7.15
2023-02-11T11:04:57.556Z,7.15
2023-02-11T11:08:07.836Z,7.28
2023-02-11T11:11:21.479Z,7.21
2023-02-11T11:14:28.983Z,7.21
2023-02-11T11:17:30.832Z,7.23
2023-02-11T11:20:35.265Z,7.15
2023-02-11T11:23:37.717Z,7.17
2023-02-11T11:26:45.516Z,7.05
2023-02-11T11:29:50.261Z,6.95
2023-02-11T11:32:52.145Z,6.95
2023-02-11T11:36:05.266Z,7.04
2023-02-11T11:39:34.880Z,7.05
2023-02-11T11:42:40.207Z,7.04
2023-02-11T11:45:56.887Z,7.11
2023-02-11T11:49:13.552Z,7.23
2023-02-11T11:52:33.608Z,7.27
2023-02-11T11:55:38.881Z,7.20
2023-02-11T11:58:40.699Z,7.29
2023-02-11T12:01:47.893Z,7.30
2023-02-11T12:05:06.385Z,7.36
2023-02-11T12:08:42.766Z,7.42
2023-02-11T12:12:09.565Z,7.42
2023-02-11T12:15:29.718Z,7.30
2023-02-11T12:18:55.755Z,7.24
2023-02-11T12:22:28.426Z,7.33
2023-02-11T12:26:09.699Z,7.23
2023-02-11T12:29:39.483Z,7.26
2023-02-11T12:33:15.816Z,7.20
2023-02-11T12:36:42.118Z,7.14
2023-02-11T12:40:08.506Z,7.17
2023-02-11T12:43:19.058Z,7.15
2023-02-11T12:46:30.502Z,7.19
2023-02-11T12:49:50.742Z,7.16
2023-02-11T12:52:58.262Z,7.14
2023-02-11T12:56:23.289Z,7.12
2023-02-11T12:59:46.775Z,7.10
2023-02-11T13:03:04.211Z,7.07
2023-02-11T13:06:18.682Z,7.07
2023-02-11T13:09:27.053Z,7.03
2023-02-11T13:12:50.908Z,7.14
2023-02-11T13:16:08.295Z,7.19
2023-02-11T13:19:21.957Z,7.17
2023-02-11T13:22:44.672Z,7.07
2023-02-11T13:25:59.452Z,7.01
2023-02-11T13:29:31.921Z,7.03
2023-02-11T13:32:58.261Z,7.08
2023-02-11T13:36:00.733Z,7.18
2023-02-11T13:39:06.415Z,7.19
2023-02-11T13:42:15.998Z,7.26
2023-02-11T13:45:28.120Z,7.25
2023-02-11T13:48:40.824Z,7.21
2023-02-11T13:51:43.288Z,7.30
2023-02-11T13:54:50.885Z,7.25
2023-02-11T13:58:19.761Z,7.26
2023-02-11T14:02:18.059Z,7.29
2023-02-11T14:05:50.779Z,7.31
2023-02-11T14:09:02.117Z,7.30
2023-02-11T14:12:24.197Z,7.27
2023-02-11T14:15:28.416Z,7.31
2023-02-11T14:18:49.830Z,7.25
2023-02-11T14:21:51.540Z,7.28
2023-02-11T14:24:55.144Z,7.34
2023-02-11T14:28:15.658Z,7.25
2023-02-11T14:31:40.947Z,7.18
2023-02-11T14:34:53.481Z,7.17
2023-02-11T14:38:12.221Z,7.21
2023-02-11T14:41:25.850Z,7.21
2023-02-11T14:44:30.889Z,7.26
2023-02-11T14:47:47.746Z,7.26
2023-02-11T14:50:54.011Z,7.21
2023-02-11T14:54:04.708Z,7.19
2023-02-11T14:57:14.768Z,7.17
2023-02-11T15:00:20.565Z,7.10
2023-02-11T15:03:28.447Z,7.18
2023-02-11T15:06:50.812Z,7.16
2023-02-11T15:09:54.344Z,7.18
2023-02-11T15:12:57.333Z,7.22
2023-02-11T15:16:07.501Z,7.18
2023-02-11T15:19:20.173Z,7.24
2023-02-11T15:22:24.827Z,7.24
2023-02-11T15:25:28.306Z,7.26
2023-02-11T15:28:33.393Z,7.24
2023-02-11T15:31:35.402Z,7.24
2023-02-11T15:34:37.511Z,7.24
2023-02-11T15:37:40.311Z,7.23
2023-02-11T15:40:53.382Z,7.20
2023-02-11T15:43:55.404Z,7.22
2023-02-11T15:46:58.412Z,7.23
2023-02-11T15:50:00.337Z,7.22
2023-02-11T15:53:12.204Z,7.24
2023-02-11T15:56:20.089Z,7.23
2023-02-11T15:59:46.787Z,7.28
2023-02-11T16:02:51.085Z,7.19
2023-02-11T16:05:52.872Z,7.19
2023-02-11T16:09:13.094Z,7.14
2023-02-11T16:12:31.822Z,7.21
2023-02-11T16:15:33.973Z,7.19
2023-02-11T16:18:40.205Z,7.20
2023-02-11T16:21:45.305Z,7.19
2023-02-11T16:24:49.944Z,7.23
2023-02-11T16:27:53.379Z,7.23
2023-02-11T16:30:56.555Z,7.23
2023-02-11T16:33:58.271Z,7.25
2023-02-11T16:37:03.782Z,7.28
2023-02-11T16:40:06.171Z,7.25
2023-02-11T16:43:08.304Z,7.26
2023-02-11T16:46:15.407Z,7.27
2023-02-11T16:49:31.367Z,7.32
2023-02-11T16:52:34.835Z,7.28
2023-02-11T16:55:36.831Z,7.37
2023-02-11T16:58:38.543Z,7.41
2023-02-11T17:01:42.168Z,7.38
2023-02-11T17:04:44.371Z,7.34
2023-02-11T17:07:46.681Z,7.36
2023-02-11T17:10:50.445Z,7.32
2023-02-11T17:13:52.690Z,7.32
2023-02-11T17:16:54.723Z,7.37
2023-02-11T17:19:56.726Z,7.35
2023-02-11T17:23:00.827Z,7.37
2023-02-11T17:26:02.868Z,7.40
2023-02-11T17:29:06.930Z,7.45
2023-02-11T17:32:08.888Z,7.45
2023-02-11T17:35:10.679Z,7.49
2023-02-11T17:38:12.685Z,7.46
2023-02-11T17:41:14.580Z,7.44
2023-02-11T17:44:16.839Z,7.49
2023-02-11T17:47:18.652Z,7.52
2023-02-11T17:50:20.503Z,7.55
2023-02-11T17:53:22.485Z,7.51
2023-02-11T17:56:24.586Z,7.49
2023-02-11T17:59:29.042Z,7.49
2023-02-11T18:02:30.710Z,7.45
2023-02-11T18:05:38.430Z,7.41
2023-02-11T18:08:41.850Z,7.43
2023-02-11T18:11:46.994Z,7.49
2023-02-11T18:14:50.121Z,7.53
2023-02-11T18:17:52.901Z,7.54
2023-02-11T18:21:03.910Z,7.52
2023-02-11T18:24:07.040Z,7.59
2023-02-11T18:27:10.053Z,7.55
2023-02-11T18:30:15.884Z,7.48
2023-02-11T18:33:17.437Z,7.49
2023-02-11T18:36:20.485Z,7.52
2023-02-11T18:39:24.370Z,7.57
2023-02-11T18:42:26.204Z,7.59
2023-02-11T18:45:29.256Z,7.51
2023-02-11T18:48:33.530Z,7.47
2023-02-11T18:51:35.282Z,7.53
2023-02-11T18:54:36.939Z,7.55
2023-02-11T18:57:38.693Z,7.58
2023-02-11T19:00:43.063Z,7.58
2023-02-11T19:03:45.596Z,7.58
2023-02-11T19:06:49.536Z,7.60
2023-02-11T19:09:51.551Z,7.59
2023-02-11T19:12:56.424Z,7.58
2023-02-11T19:15:58.193Z,7.56
2023-02-11T19:18:59.906Z,7.62
2023-02-11T19:22:03.105Z,7.61
2023-02-11T19:25:05.516Z,7.58
2023-02-11T19:28:09.305Z,7.58
2023-02-11T19:31:11.671Z,7.52
2023-02-11T19:34:15.469Z,7.57
2023-02-11T19:37:17.377Z,7.55
2023-02-11T19:40:21.385Z,7.55
2023-02-11T19:43:23.091Z,7.48
2023-02-11T19:46:26.368Z,7.57
2023-02-11T19:49:28.205Z,7.58
2023-02-11T19:52:29.797Z,7.53
2023-02-11T19:55:34.715Z,7.51
2023-02-11T19:58:38.087Z,7.52
2023-02-11T20:01:40.571Z,7.48
2023-02-11T20:04:42.330Z,7.47
2023-02-11T20:07:44.153Z,7.41
2023-02-11T20:10:46.836Z,7.46
2023-02-11T20:13:49.459Z,7.52
2023-02-11T20:16:52.896Z,7.53
2023-02-11T20:19:57.808Z,7.49
2023-02-11T20:22:59.453Z,7.50
2023-02-11T20:26:13.058Z,7.47
2023-02-11T20:29:18.864Z,7.40
2023-02-11T20:32:20.868Z,7.37
2023-02-11T20:35:22.628Z,7.26
2023-02-11T20:38:24.789Z,7.25
2023-02-11T20:41:30.936Z,7.24
2023-02-11T20:44:32.622Z,7.22
2023-02-11T20:47:34.291Z,7.24
2023-02-11T20:50:36.027Z,7.15
2023-02-11T20:53:40.868Z,7.08
2023-02-11T20:56:45.524Z,7.05
2023-02-11T20:59:48.408Z,7.02
2023-02-11T21:02:53.555Z,7.03
2023-02-11T21:05:58.477Z,7.05
2023-02-11T21:09:00.240Z,7.07
2023-02-11T21:12:02.136Z,7.06
2023-02-11T21:15:05.540Z,7.05
2023-02-11T21:18:07.239Z,7.08
2023-02-11T21:21:08.851Z,6.99
2023-02-11T21:24:11.702Z,7.06
2023-02-11T21:27:13.304Z,7.08
2023-02-11T21:30:15.170Z,7.02
2023-02-11T21:33:16.782Z,7.04
2023-02-11T21:36:22.488Z,7.02
2023-02-11T21:39:24.158Z,7.01
2023-02-11T21:42:25.876Z,6.95
2023-02-11T21:45:27.536Z,6.86
2023-02-11T21:48:31.488Z,6.85
2023-02-11T21:51:33.183Z,6.89
2023-02-11T21:54:34.862Z,6.86
2023-02-11T21:57:36.477Z,6.95
2023-02-11T22:00:38.977Z,6.87
2023-02-11T22:03:41.297Z,6.88
2023-02-11T22:06:42.959Z,6.86
2023-02-11T22:09:44.629Z,6.84
2023-02-11T22:12:46.291Z,6.84
2023-02-11T22:15:57.745Z,6.81
2023-02-11T22:19:02.212Z,6.81
2023-02-11T22:22:06.127Z,6.78
2023-02-11T22:25:08.230Z,6.84
2023-02-11T22:28:10.149Z,6.86
2023-02-11T22:31:18.297Z,6.87
2023-02-11T22:34:20.030Z,6.87
2023-02-11T22:37:21.923Z,6.80
2023-02-11T22:40:23.750Z,6.81
2023-02-11T22:43:25.536Z,6.81
2023-02-11T22:46:27.451Z,6.84
2023-02-11T22:49:29.215Z,6.88
2023-02-11T22:52:30.793Z,6.88
2023-02-11T22:55:36.948Z,6.86
2023-02-11T22:58:38.828Z,6.86
2023-02-11T23:01:40.847Z,6.84
2023-02-11T23:04:42.509Z,6.84
2023-02-11T23:07:44.179Z,6.81
2023-02-11T23:10:46.322Z,6.89
2023-02-11T23:13:49.966Z,6.85
2023-02-11T23:16:51.850Z,6.84
2023-02-11T23:19:53.545Z,6.83
2023-02-11T23:22:55.163Z,6.87
2023-02-11T23:25:57.176Z,6.96
2023-02-11T23:28:59.945Z,7.06
2023-02-11T23:32:04.782Z,7.01
2023-02-11T23:35:06.649Z,7.00
2023-02-11T23:38:08.527Z,7.00
2023-02-11T23:41:11.192Z,7.07
2023-02-11T23:44:12.869Z,7.11
2023-02-11T23:47:15.765Z,7.08
2023-02-11T23:50:17.663Z,7.07
2023-02-11T23:53:19.565Z,7.08
2023-02-11T23:56:24.197Z,7.06
2023-02-11T23:59:26.004Z,7.14
